Time;durP1;ratioP1;P1;durP2;ratioP2;P2;SDS_P1;SDS_P2;PMS_P1;PMS_P2;Temp;Humidity;BMP_temperature;BMP_pressure;BME280_temperature;BME280_humidity;BME280_pressure;Samples;Min_cycle;Max_cycle;Signal;HPM_P1;HPM_P2
2021/01/03 11:07:24;;;;;;;56.22;24.65;;;4.50;99.90;;;;;;5123106;27;20327;-78
2021/01/03 11:09:50;;;;;;;59.42;25.15;;;4.70;99.90;;;;;;5110148;28;20032;-77
2021/01/03 11:12:17;;;;;;;57.17;24.38;;;5.20;99.90;;;;;;5108158;28;20424;-77
2021/01/03 11:14:43;;;;;;;59.47;24.42;;;5.60;99.90;;;;;;5105507;28;20038;-76
2021/01/03 11:17:13;;;;;;;50.88;23.15;;;6.00;99.90;;;;;;5071676;28;20097;-77
2021/01/03 11:19:39;;;;;;;59.20;25.50;;;6.40;99.90;;;;;;5069226;28;20029;-77
2021/01/03 11:22:07;;;;;;;57.63;25.55;;;6.60;99.90;;;;;;5071853;28;20020;-77
2021/01/03 11:24:33;;;;;;;57.00;25.63;;;6.80;99.90;;;;;;5071155;28;20518;-78
2021/01/03 11:27:01;;;;;;;54.17;24.23;;;7.00;99.90;;;;;;5074325;28;20025;-77
2021/01/03 11:29:27;;;;;;;53.58;23.55;;;7.10;99.90;;;;;;5071459;28;20025;-78
2021/01/03 11:31:56;;;;;;;50.60;21.35;;;7.20;99.90;;;;;;5070186;28;20029;-78
2021/01/03 11:34:30;;;;;;;50.85;21.90;;;7.30;99.90;;;;;;5066544;28;20434;-78
2021/01/03 11:37:05;;;;;;;50.22;21.13;;;7.30;99.90;;;;;;5069816;28;20031;-77
2021/01/03 11:39:33;;;;;;;48.88;21.10;;;7.40;99.90;;;;;;5079058;28;20071;-78
2021/01/03 11:42:01;;;;;;;45.17;19.73;;;7.50;99.90;;;;;;5073543;28;20047;-78
2021/01/03 11:44:30;;;;;;;42.58;19.65;;;7.50;99.90;;;;;;5068684;28;20028;-78
2021/01/03 11:47:04;;;;;;;45.20;20.48;;;7.60;99.90;;;;;;5073421;28;20037;-77
2021/01/03 11:49:32;;;;;;;48.55;21.20;;;7.50;99.90;;;;;;5070902;28;20043;-77
2021/01/03 11:51:59;;;;;;;47.20;20.90;;;7.60;99.90;;;;;;5067065;28;20032;-79
2021/01/03 11:54:25;;;;;;;49.13;21.25;;;7.60;99.90;;;;;;5056935;28;20112;-78
2021/01/03 11:56:55;;;;;;;39.80;18.90;;;7.70;99.90;;;;;;5069562;28;20056;-78
2021/01/03 11:59:21;;;;;;;42.45;17.83;;;7.80;99.90;;;;;;5069860;28;20479;-79
2021/01/03 12:01:47;;;;;;;41.05;19.98;;;7.80;99.90;;;;;;5066872;28;20529;-79
2021/01/03 12:04:13;;;;;;;44.38;18.73;;;7.90;99.90;;;;;;5068772;28;20040;-79
2021/01/03 12:06:39;;;;;;;36.80;16.73;;;8.00;99.90;;;;;;5066536;28;20084;-79
2021/01/03 12:09:05;;;;;;;37.15;17.73;;;8.00;99.90;;;;;;5066570;28;20037;-78
2021/01/03 12:11:31;;;;;;;39.13;17.88;;;8.00;99.90;;;;;;5067607;28;20509;-80
2021/01/03 12:14:01;;;;;;;41.60;18.92;;;8.00;99.90;;;;;;5060240;28;20054;-78
2021/01/03 12:16:31;;;;;;;40.80;17.75;;;8.10;99.90;;;;;;5069679;28;20033;-81
2021/01/03 12:18:57;;;;;;;34.28;16.95;;;8.20;99.90;;;;;;5053025;28;20036;-80
2021/01/03 12:21:31;;;;;;;39.38;18.13;;;8.20;99.90;;;;;;5054696;28;20488;-79
2021/01/03 12:23:58;;;;;;;39.90;17.90;;;8.20;99.90;;;;;;5049794;28;20108;-82
2021/01/03 12:26:32;;;;;;;36.10;17.30;;;8.20;99.90;;;;;;5051717;28;20036;-80
2021/01/03 12:28:58;;;;;;;38.58;18.55;;;8.30;99.90;;;;;;5051597;28;20111;-80
2021/01/03 12:31:45;;;;;;;35.58;17.95;;;8.30;99.90;;;;;;5049408;28;20060;-79
2021/01/03 12:34:13;;;;;;;35.22;16.70;;;8.40;99.90;;;;;;5055339;28;20025;-82
2021/01/03 12:36:43;;;;;;;34.38;17.08;;;8.40;99.90;;;;;;5053845;28;20037;-80
2021/01/03 12:39:11;;;;;;;30.60;15.05;;;8.40;99.90;;;;;;5050284;28;20036;-80
2021/01/03 12:41:37;;;;;;;29.08;14.63;;;8.40;99.90;;;;;;5056272;28;20029;-78
2021/01/03 12:44:04;;;;;;;28.08;14.13;;;8.40;99.90;;;;;;5048440;28;20437;-78
2021/01/03 12:46:36;;;;;;;28.40;14.63;;;8.30;99.90;;;;;;5044613;28;20053;-78
2021/01/03 12:49:03;;;;;;;31.55;15.32;;;8.30;99.90;;;;;;5047867;28;20094;-79
2021/01/03 12:51:29;;;;;;;31.60;14.93;;;8.30;99.90;;;;;;5047993;28;20029;-79
2021/01/03 12:53:55;;;;;;;31.38;14.77;;;8.30;99.90;;;;;;5053869;28;20040;-78
2021/01/03 12:56:24;;;;;;;31.88;15.38;;;8.30;99.90;;;;;;5054248;28;20032;-78
2021/01/03 12:58:55;;;;;;;29.25;14.90;;;8.30;99.90;;;;;;5052752;28;20021;-78
2021/01/03 13:01:22;;;;;;;29.70;15.67;;;8.30;99.90;;;;;;5056409;28;20033;-80
2021/01/03 13:03:48;;;;;;;31.70;15.43;;;8.20;99.90;;;;;;5056416;28;20021;-78
2021/01/03 13:06:13;;;;;;;32.00;15.75;;;8.30;99.90;;;;;;5043597;28;20132;-78
2021/01/03 13:08:39;;;;;;;33.30;15.50;;;8.30;99.90;;;;;;5050072;28;20095;-79
2021/01/03 13:11:05;;;;;;;36.10;15.52;;;8.40;99.90;;;;;;5043869;28;20649;-78
2021/01/03 13:13:30;;;;;;;29.20;15.32;;;8.40;99.90;;;;;;5047596;28;20108;-78
2021/01/03 13:15:57;;;;;;;31.00;15.85;;;8.40;99.90;;;;;;5051256;28;20462;-77
2021/01/03 13:18:23;;;;;;;33.53;15.70;;;8.40;99.90;;;;;;5053997;28;20120;-80
2021/01/03 13:20:48;;;;;;;31.50;15.40;;;8.30;99.90;;;;;;5056924;28;20113;-79
2021/01/03 13:23:14;;;;;;;27.70;14.68;;;8.40;99.90;;;;;;5055732;28;20028;-81
2021/01/03 13:25:40;;;;;;;31.20;14.52;;;8.30;99.90;;;;;;5051344;28;20559;-79
2021/01/03 13:28:06;;;;;;;26.60;14.25;;;8.30;99.90;;;;;;5047038;28;20021;-78
2021/01/03 13:30:31;;;;;;;25.55;13.43;;;8.30;99.90;;;;;;5048822;28;20029;-79
2021/01/03 13:32:57;;;;;;;25.42;13.95;;;8.30;99.90;;;;;;5043415;28;20032;-78
2021/01/03 13:35:23;;;;;;;24.98;13.73;;;8.20;99.90;;;;;;5049029;28;20167;-79
2021/01/03 13:37:48;;;;;;;30.70;14.82;;;8.20;99.90;;;;;;5051473;28;20508;-80
2021/01/03 13:40:14;;;;;;;26.27;13.73;;;8.20;99.90;;;;;;5043830;28;20037;-80
2021/01/03 13:42:40;;;;;;;29.73;14.90;;;8.20;99.90;;;;;;5047292;28;20033;-79
2021/01/03 13:45:09;;;;;;;33.45;16.90;;;8.10;99.90;;;;;;5048906;28;20460;-80
2021/01/03 13:47:35;;;;;;;40.10;19.45;;;8.10;99.90;;;;;;5051836;28;20020;-79
2021/01/03 13:50:02;;;;;;;39.13;18.73;;;7.90;99.90;;;;;;5050703;28;20396;-79
2021/01/03 13:52:27;;;;;;;43.90;20.88;;;7.90;99.90;;;;;;5051667;28;20383;-80
2021/01/03 13:54:53;;;;;;;41.17;19.70;;;7.90;99.90;;;;;;5048021;28;20075;-79
2021/01/03 13:57:18;;;;;;;37.20;17.60;;;7.80;99.90;;;;;;5049866;28;20029;-79
2021/01/03 13:59:44;;;;;;;42.13;19.50;;;7.90;99.90;;;;;;5047935;28;20044;-79
2021/01/03 14:02:10;;;;;;;34.60;16.20;;;7.80;99.90;;;;;;5052677;28;20041;-80
2021/01/03 14:04:36;;;;;;;34.38;16.35;;;7.70;99.90;;;;;;5052028;28;20033;-80
2021/01/03 14:07:05;;;;;;;37.80;18.00;;;7.70;99.90;;;;;;5034877;28;20145;-80
2021/01/03 14:09:31;;;;;;;38.22;18.83;;;7.70;99.90;;;;;;5049222;28;20500;-79
2021/01/03 14:11:57;;;;;;;34.88;16.75;;;7.70;99.90;;;;;;5052425;28;20029;-80
2021/01/03 14:14:23;;;;;;;36.38;17.13;;;7.70;99.90;;;;;;5046237;28;20025;-79
2021/01/03 14:16:55;;;;;;;38.85;18.65;;;7.70;99.90;;;;;;5044568;28;20043;-79
2021/01/03 14:19:21;;;;;;;41.03;18.67;;;7.70;99.90;;;;;;5048026;28;20104;-79
2021/01/03 14:21:46;;;;;;;40.45;20.30;;;7.70;99.90;;;;;;5051198;28;20454;-79
2021/01/03 14:24:13;;;;;;;40.65;19.98;;;7.70;99.90;;;;;;5049849;28;20070;-80
2021/01/03 14:26:43;;;;;;;44.03;19.90;;;7.70;99.90;;;;;;5044752;28;20503;-79
2021/01/03 14:29:11;;;;;;;44.72;20.55;;;7.80;99.90;;;;;;5039485;28;20463;-79
2021/01/03 14:31:38;;;;;;;44.67;20.80;;;7.80;99.90;;;;;;5042189;28;20116;-79
2021/01/03 14:34:35;;;;;;;49.47;22.48;;;7.80;99.90;;;;;;5043831;28;20025;-79
2021/01/03 14:37:25;;;;;;;42.55;20.88;;;7.80;99.90;;;;;;5044396;28;20043;-78
2021/01/03 14:40:24;;;;;;;52.53;24.25;;;7.80;99.90;;;;;;5041428;28;20057;-79
2021/01/03 14:43:08;;;;;;;57.92;26.25;;;7.80;99.90;;;;;;5042551;28;20037;-78
2021/01/03 14:45:46;;;;;;;49.60;24.00;;;7.80;99.90;;;;;;5050376;28;20101;-80
2021/01/03 14:48:19;;;;;;;39.80;19.38;;;7.80;99.90;;;;;;5050565;28;20021;-78
2021/01/03 14:50:57;;;;;;;39.00;18.40;;;7.80;99.90;;;;;;5050874;28;20504;-78
2021/01/03 14:53:31;;;;;;;33.50;17.45;;;7.70;99.90;;;;;;5042228;28;20043;-77
2021/01/03 14:56:28;;;;;;;36.00;17.45;;;7.80;99.90;;;;;;5048223;28;20064;-78
2021/01/03 14:59:14;;;;;;;38.95;18.95;;;7.60;99.90;;;;;;4999317;28;20038;-78
2021/01/03 15:02:05;;;;;;;38.83;19.27;;;7.70;99.90;;;;;;4980287;28;20035;-78
2021/01/03 15:04:49;;;;;;;35.50;18.20;;;7.70;99.90;;;;;;5003664;28;20121;-78
2021/01/03 15:07:40;;;;;;;37.05;17.58;;;7.70;99.90;;;;;;4983446;28;20057;-78
2021/01/03 15:10:08;;;;;;;36.13;17.77;;;7.60;99.90;;;;;;5004174;28;20038;-76
2021/01/03 15:12:34;;;;;;;36.78;17.52;;;7.60;99.90;;;;;;5004487;28;20034;-77
2021/01/03 15:15:05;;;;;;;37.53;18.15;;;7.50;99.90;;;;;;4993135;28;20529;-78
2021/01/03 15:17:42;;;;;;;36.47;18.48;;;7.50;99.90;;;;;;4986988;28;20101;-78
2021/01/03 15:20:23;;;;;;;39.03;20.73;;;7.50;99.90;;;;;;5001386;28;20041;-77
2021/01/03 15:22:54;;;;;;;38.78;18.48;;;7.50;99.90;;;;;;4990712;28;20065;-78
2021/01/03 15:25:26;;;;;;;40.15;18.88;;;7.60;99.90;;;;;;4987922;28;20025;-76
2021/01/03 15:27:55;;;;;;;43.63;21.30;;;7.60;99.90;;;;;;4998397;28;20038;-78
2021/01/03 15:30:28;;;;;;;40.03;18.15;;;7.60;99.90;;;;;;4997950;28;20522;-77
2021/01/03 15:32:55;;;;;;;42.72;20.25;;;7.50;99.90;;;;;;4998601;28;20041;-77
2021/01/03 15:35:34;;;;;;;46.85;21.00;;;7.50;99.90;;;;;;5011815;28;20029;-76
2021/01/03 15:38:07;;;;;;;49.10;21.65;;;7.40;99.90;;;;;;5044285;28;20028;-77
2021/01/03 15:40:54;;;;;;;44.63;19.48;;;7.40;99.90;;;;;;5047032;28;20033;-77
